createdAt,value
2023-05-25T00:05:01.079Z,13.98
2023-05-25T00:10:02.612Z,12.43
2023-05-25T00:15:05.259Z,10.10
2023-05-25T00:20:07.560Z,12.02
2023-05-25T00:25:10.767Z,17.13
2023-05-25T00:30:13.551Z,13.02
2023-05-25T00:35:15.008Z,12.30
2023-05-25T00:40:17.426Z,18.30
2023-05-25T00:45:18.852Z,13.85
2023-05-25T00:50:24.801Z,16.05
2023-05-25T00:55:29.977Z,11.45
2023-05-25T01:00:32.456Z,12.38
2023-05-25T01:05:34.878Z,15.05
2023-05-25T01:10:37.320Z,11.63
2023-05-25T01:15:39.343Z,14.38
2023-05-25T01:20:53.487Z,15.55
2023-05-25T01:25:58.717Z,15.55
2023-05-25T01:31:00.723Z,15.88
2023-05-25T01:36:03.043Z,18.63
2023-05-25T01:41:04.633Z,14.32
2023-05-25T01:46:28.936Z,16.10
2023-05-25T01:51:47.627Z,16.15
2023-05-25T01:56:51.461Z,18.05
2023-05-25T02:01:53.786Z,15.55
2023-05-25T02:06:55.302Z,13.93
2023-05-25T02:11:56.962Z,11.82
2023-05-25T02:17:01.893Z,15.77
2023-05-25T02:22:03.317Z,16.25
2023-05-25T02:27:05.805Z,11.45
2023-05-25T02:32:07.234Z,15.35
2023-05-25T02:37:08.590Z,14.52
2023-05-25T02:42:10.072Z,20.45
2023-05-25T02:47:11.515Z,13.63
2023-05-25T02:52:13.245Z,11.48
2023-05-25T02:57:14.684Z,11.05
2023-05-25T03:02:18.477Z,13.77
2023-05-25T03:07:20.935Z,11.95
2023-05-25T03:12:22.344Z,16.95
2023-05-25T03:17:23.791Z,9.98
2023-05-25T03:22:25.211Z,14.75
2023-05-25T03:27:26.651Z,12.82
2023-05-25T03:32:28.062Z,12.63
2023-05-25T03:37:29.452Z,11.02
2023-05-25T03:42:30.950Z,15.75
2023-05-25T03:47:32.575Z,12.60
2023-05-25T03:52:34.277Z,12.35
2023-05-25T03:57:37.633Z,12.00
2023-05-25T04:02:39.372Z,13.32
2023-05-25T04:07:40.917Z,8.15
2023-05-25T04:12:42.283Z,8.38
2023-05-25T04:17:43.677Z,9.27
2023-05-25T04:22:46.095Z,8.60
2023-05-25T04:27:47.522Z,9.68
2023-05-25T04:32:48.990Z,13.27
2023-05-25T04:37:51.558Z,14.52
2023-05-25T04:42:54.069Z,11.13
2023-05-25T04:47:56.567Z,13.68
2023-05-25T04:52:57.938Z,15.57
2023-05-25T04:57:59.674Z,13.38
2023-05-25T05:03:01.225Z,14.93
2023-05-25T05:08:03.621Z,13.32
2023-05-25T05:13:05.074Z,18.55
2023-05-25T05:18:08.600Z,16.85
2023-05-25T05:23:10.081Z,18.80
2023-05-25T05:28:11.633Z,20.55
2023-05-25T05:33:13.955Z,19.58
2023-05-25T05:38:15.497Z,19.65
2023-05-25T05:43:16.924Z,21.75
2023-05-25T05:48:18.369Z,20.58
2023-05-25T05:53:19.737Z,24.23
2023-05-25T05:58:21.259Z,24.92
2023-05-25T06:03:23.518Z,27.63
2023-05-25T06:08:25.101Z,24.70
2023-05-25T06:13:27.557Z,25.75
2023-05-25T06:18:28.985Z,30.60
2023-05-25T06:23:30.343Z,26.48
2023-05-25T06:28:31.960Z,26.80
2023-05-25T06:33:33.362Z,25.63
2023-05-25T06:38:34.896Z,23.13
2023-05-25T06:43:36.322Z,23.98
2023-05-25T06:48:38.601Z,21.70
2023-05-25T06:53:40.164Z,28.45
2023-05-25T06:58:41.543Z,20.30
2023-05-25T07:03:43.412Z,32.00
2023-05-25T07:08:44.892Z,24.20
2023-05-25T07:13:46.535Z,31.25
2023-05-25T07:18:48.018Z,19.85
2023-05-25T07:23:49.477Z,28.52
2023-05-25T07:28:51.069Z,26.38
2023-05-25T07:33:53.700Z,26.13
2023-05-25T07:38:55.199Z,27.63
2023-05-25T07:43:56.680Z,27.70
2023-05-25T07:48:59.638Z,29.30
2023-05-25T07:54:01.363Z,23.48
2023-05-25T07:59:02.972Z,15.88
2023-05-25T08:04:04.592Z,24.45
2023-05-25T08:09:07.903Z,24.90
2023-05-25T08:14:09.284Z,24.30
2023-05-25T08:19:10.740Z,19.88
2023-05-25T08:24:12.138Z,25.27
2023-05-25T08:29:13.517Z,22.10
2023-05-25T08:34:15.382Z,23.30
2023-05-25T08:39:16.855Z,31.45
2023-05-25T08:44:18.495Z,25.75
2023-05-25T08:49:22.266Z,22.02
2023-05-25T08:54:29.574Z,22.48
2023-05-25T08:59:36.384Z,15.88
2023-05-25T09:04:38.098Z,18.40
2023-05-25T09:09:39.929Z,21.75
2023-05-25T09:14:45.815Z,21.38
2023-05-25T09:19:47.353Z,29.48
2023-05-25T09:24:49.189Z,20.25
2023-05-25T09:29:51.254Z,21.83
2023-05-25T09:34:53.535Z,20.55
2023-05-25T09:39:56.815Z,31.92
2023-05-25T09:44:59.042Z,19.70
2023-05-25T09:50:00.532Z,21.67
2023-05-25T09:55:02.230Z,18.65
2023-05-25T10:00:05.796Z,18.48
2023-05-25T10:05:07.481Z,13.70
2023-05-25T10:10:10.235Z,21.90
2023-05-25T10:15:12.482Z,18.33
2023-05-25T10:20:14.781Z,17.77
2023-05-25T10:25:19.189Z,19.23
2023-05-25T10:30:20.998Z,18.55
2023-05-25T10:35:23.307Z,23.08
2023-05-25T10:40:24.689Z,14.68
2023-05-25T10:45:26.692Z,27.65
2023-05-25T10:50:28.655Z,19.70
2023-05-25T10:55:41.589Z,17.05
2023-05-25T11:00:43.609Z,15.13
2023-05-25T11:05:50.376Z,22.70
2023-05-25T11:10:53.084Z,17.13
2023-05-25T11:16:15.160Z,16.08
2023-05-25T11:21:18.747Z,17.58
2023-05-25T11:26:24.433Z,14.38
2023-05-25T11:31:34.920Z,15.98
2023-05-25T11:36:37.527Z,15.77
2023-05-25T11:41:40.569Z,16.40
2023-05-25T11:46:43.614Z,19.55
2023-05-25T11:51:45.389Z,13.27
2023-05-25T11:56:46.808Z,15.00
2023-05-25T12:02:01.722Z,20.88
2023-05-25T12:07:03.917Z,20.05
2023-05-25T12:12:05.797Z,15.60
2023-05-25T12:17:07.330Z,17.67
2023-05-25T12:22:09.197Z,16.52
2023-05-25T12:27:20.439Z,22.55
2023-05-25T12:32:21.908Z,14.88
2023-05-25T12:37:23.458Z,12.07
2023-05-25T12:42:26.598Z,10.10
2023-05-25T12:47:30.153Z,13.45
2023-05-25T12:52:33.213Z,18.40
2023-05-25T12:57:37.500Z,14.25
2023-05-25T13:02:42.181Z,10.95
2023-05-25T13:07:44.219Z,11.05
2023-05-25T13:12:46.394Z,11.80
2023-05-25T13:17:48.653Z,11.10
2023-05-25T13:22:51.255Z,13.93
2023-05-25T13:27:53.391Z,12.93
2023-05-25T13:32:54.880Z,11.20
2023-05-25T13:37:56.377Z,11.52
2023-05-25T13:42:57.777Z,15.45
2023-05-25T13:47:59.321Z,11.10
2023-05-25T13:53:03.910Z,16.95
2023-05-25T13:58:05.670Z,13.40
2023-05-25T14:03:07.206Z,13.82
2023-05-25T14:08:09.131Z,18.00
2023-05-25T14:13:10.619Z,11.15
2023-05-25T14:18:12.049Z,14.95
2023-05-25T14:23:15.820Z,17.70
2023-05-25T14:28:18.945Z,19.40
2023-05-25T14:33:20.438Z,15.30
2023-05-25T14:38:21.810Z,11.32
2023-05-25T14:43:23.227Z,13.35
2023-05-25T14:48:25.949Z,16.52
2023-05-25T14:53:27.406Z,12.03
2023-05-25T14:58:28.923Z,14.65
2023-05-25T15:03:30.434Z,16.90
2023-05-25T15:08:32.007Z,10.60
2023-05-25T15:13:33.448Z,11.40
2023-05-25T15:18:34.847Z,15.48
2023-05-25T15:23:36.606Z,15.13
2023-05-25T15:28:38.137Z,16.52
2023-05-25T15:33:53.682Z,19.27
2023-05-25T15:38:58.205Z,14.80
2023-05-25T15:44:01.243Z,16.55
2023-05-25T15:49:02.814Z,21.63
2023-05-25T15:54:04.323Z,17.75
2023-05-25T15:59:05.781Z,15.10
2023-05-25T16:04:07.320Z,11.50
2023-05-25T16:09:08.787Z,16.15
2023-05-25T16:14:10.479Z,15.93
2023-05-25T16:19:14.126Z,19.85
2023-05-25T16:24:15.801Z,15.38
2023-05-25T16:29:17.396Z,20.70
2023-05-25T16:34:18.805Z,19.55
2023-05-25T16:39:20.339Z,19.25
2023-05-25T16:44:21.730Z,21.52
2023-05-25T16:49:23.136Z,17.38
2023-05-25T16:54:24.619Z,14.85
2023-05-25T16:59:26.034Z,18.48
2023-05-25T17:04:27.438Z,19.65
2023-05-25T17:09:28.919Z,16.92
2023-05-25T17:14:30.414Z,18.00
2023-05-25T17:19:31.961Z,18.63
2023-05-25T17:24:33.330Z,18.67
2023-05-25T17:29:34.746Z,19.35
2023-05-25T17:34:36.208Z,23.67
2023-05-25T17:39:37.589Z,22.85
2023-05-25T17:44:41.406Z,22.02
2023-05-25T17:49:42.803Z,18.35
2023-05-25T17:54:44.209Z,25.42
2023-05-25T17:59:45.886Z,19.77
2023-05-25T18:04:47.368Z,20.65
2023-05-25T18:09:48.806Z,18.75
2023-05-25T18:14:50.229Z,16.58
2023-05-25T18:19:51.783Z,18.48
2023-05-25T18:24:53.221Z,17.95
2023-05-25T18:29:54.720Z,16.98
2023-05-25T18:34:57.303Z,18.55
2023-05-25T18:39:58.868Z,22.92
2023-05-25T18:45:00.733Z,26.10
2023-05-25T18:50:02.416Z,19.65
2023-05-25T18:55:04.620Z,14.77
2023-05-25T19:00:08.792Z,20.25
2023-05-25T19:05:13.060Z,22.88
2023-05-25T19:10:14.466Z,17.60
2023-05-25T19:15:16.030Z,24.48
2023-05-25T19:20:17.621Z,13.60
2023-05-25T19:25:19.102Z,19.63
2023-05-25T19:30:20.801Z,20.65
2023-05-25T19:35:22.228Z,20.02
2023-05-25T19:40:24.074Z,16.48
2023-05-25T19:45:25.559Z,18.30
2023-05-25T19:50:30.470Z,19.33
2023-05-25T19:55:32.194Z,19.60
2023-05-25T20:00:33.602Z,22.48
2023-05-25T20:05:35.028Z,27.00
2023-05-25T20:10:38.625Z,21.60
2023-05-25T20:15:40.128Z,17.13
2023-05-25T20:20:41.728Z,16.27
2023-05-25T20:25:43.297Z,22.77
2023-05-25T20:30:44.873Z,19.27
2023-05-25T20:35:46.570Z,27.83
2023-05-25T20:40:48.159Z,29.02
2023-05-25T20:45:49.665Z,17.60
2023-05-25T20:50:51.111Z,17.90
2023-05-25T20:55:52.508Z,22.48
2023-05-25T21:00:53.983Z,20.90
2023-05-25T21:05:55.524Z,23.38
2023-05-25T21:10:56.958Z,26.52
2023-05-25T21:15:58.749Z,21.27
2023-05-25T21:21:00.316Z,22.30
2023-05-25T21:26:01.740Z,20.33
2023-05-25T21:31:03.211Z,18.38
2023-05-25T21:36:04.627Z,19.35
2023-05-25T21:41:06.397Z,23.40
2023-05-25T21:46:07.810Z,20.40
2023-05-25T21:51:09.253Z,14.32
2023-05-25T21:56:10.690Z,19.00
2023-05-25T22:01:12.246Z,23.70
2023-05-25T22:06:13.724Z,25.13
2023-05-25T22:11:15.113Z,21.67
2023-05-25T22:16:16.680Z,22.45
2023-05-25T22:21:18.137Z,19.83
2023-05-25T22:26:19.618Z,22.83
2023-05-25T22:31:23.433Z,16.25
2023-05-25T22:36:24.811Z,18.33
2023-05-25T22:41:26.535Z,24.40
2023-05-25T22:46:27.980Z,23.65
2023-05-25T22:51:29.420Z,23.00
2023-05-25T22:56:30.874Z,24.15
2023-05-25T23:01:32.362Z,18.35
2023-05-25T23:06:33.822Z,20.30
2023-05-25T23:11:35.370Z,18.55
2023-05-25T23:16:36.845Z,20.00
2023-05-25T23:21:38.345Z,31.17
2023-05-25T23:26:39.760Z,23.67
2023-05-25T23:31:41.324Z,22.63
2023-05-25T23:36:42.847Z,26.80
2023-05-25T23:41:44.275Z,18.23
2023-05-25T23:46:45.661Z,16.15
2023-05-25T23:51:47.107Z,21.05
2023-05-25T23:56:48.534Z,27.88
